Time;durP1;ratioP1;P1;durP2;ratioP2;P2;SDS_P1;SDS_P2;PMS_P1;PMS_P2;Temp;Humidity;BMP_temperature;BMP_pressure;BME280_temperature;BME280_humidity;BME280_pressure;Samples;Min_cycle;Max_cycle;Signal;HPM_P1;HPM_P2
2022/09/19 00:01:41;;;;;;;12.93;2.90;;;;;;;8.47;100.00;101665.31;5050764;28;20039;-83
2022/09/19 00:04:11;;;;;;;18.37;3.17;;;;;;;8.50;100.00;101656.88;5050057;28;20452;-83
2022/09/19 00:06:38;;;;;;;13.50;3.20;;;;;;;8.47;100.00;101650.97;5030569;28;20040;-87
2022/09/19 00:09:06;;;;;;;12.17;3.00;;;;;;;8.49;100.00;101662.47;5050508;28;20024;-84
2022/09/19 00:11:33;;;;;;;12.53;2.90;;;;;;;8.44;100.00;101658.41;5050721;28;20034;-85
2022/09/19 00:13:59;;;;;;;12.13;3.30;;;;;;;8.45;100.00;101653.84;5050212;28;20043;-84
2022/09/19 00:16:28;;;;;;;11.33;3.00;;;;;;;8.31;100.00;101641.06;5050189;28;20057;-86
2022/09/19 00:18:55;;;;;;;14.30;3.23;;;;;;;8.39;100.00;101654.53;5050479;28;20028;-85
2022/09/19 00:21:25;;;;;;;12.77;3.00;;;;;;;8.39;100.00;101655.38;5049832;28;20041;-85
2022/09/19 00:26:36;;;;;;;;;;;;;;;8.47;100.00;101662.59;5051452;28;20128;-84
2022/09/19 00:29:03;;;;;;;12.93;3.27;;;;;;;8.42;100.00;101654.19;5050023;28;20027;-87
2022/09/19 00:31:28;;;;;;;11.40;2.90;;;;;;;8.37;100.00;101645.78;5049778;28;20035;-86
2022/09/19 00:33:54;;;;;;;12.73;3.13;;;;;;;8.34;100.00;101641.56;5050900;28;20040;-86
2022/09/19 00:36:20;;;;;;;20.27;3.17;;;;;;;8.36;100.00;101653.00;5050069;28;20388;-84
2022/09/19 00:38:45;;;;;;;13.77;2.80;;;;;;;8.38;100.00;101655.56;5050234;28;20032;-84
2022/09/19 00:41:17;;;;;;;16.73;3.13;;;;;;;8.39;100.00;101654.53;5049778;28;20511;-83
2022/09/19 00:43:47;;;;;;;13.27;3.00;;;;;;;8.25;100.00;101642.63;5049408;28;20092;-84
2022/09/19 00:46:13;;;;;;;20.73;3.93;;;;;;;8.37;100.00;101648.47;5050293;28;20488;-84
2022/09/19 00:48:41;;;;;;;15.03;3.40;;;;;;;8.45;100.00;101661.97;5049439;28;20094;-85
2022/09/19 00:51:12;;;;;;;10.83;3.00;;;;;;;8.33;100.00;101657.94;5052336;28;20049;-86
2022/09/19 00:53:37;;;;;;;10.90;3.43;;;;;;;8.34;100.00;101656.94;5049749;28;20039;-84
2022/09/19 00:56:04;;;;;;;15.47;3.50;;;;;;;8.41;100.00;101668.69;5050304;28;20561;-86
2022/09/19 00:58:35;;;;;;;11.47;3.40;;;;;;;8.39;100.00;101676.13;5033213;28;20062;-85
2022/09/19 01:01:01;;;;;;;12.90;3.07;;;;;;;8.22;100.00;101660.00;5049908;28;20064;-86
2022/09/19 01:03:28;;;;;;;11.57;2.70;;;;;;;8.21;100.00;101662.88;5049768;28;20099;-83
2022/09/19 01:06:35;;;;;;;12.50;3.00;;;;;;;8.28;100.00;101674.66;5049254;28;20496;-86
2022/09/19 01:09:21;;;;;;;15.30;3.10;;;;;;;8.19;100.00;101681.13;5048820;28;20028;-86
2022/09/19 01:12:07;;;;;;;13.17;2.90;;;;;;;8.15;100.00;101675.25;5048417;28;20060;-85
2022/09/19 01:14:53;;;;;;;13.00;3.33;;;;;;;8.15;100.00;101680.63;5049325;28;20108;-85
2022/09/19 01:17:34;;;;;;;18.40;3.20;;;;;;;8.16;100.00;101685.03;5049685;28;20087;-84
2022/09/19 01:19:59;;;;;;;13.60;3.27;;;;;;;8.17;100.00;101684.00;5048863;28;20130;-85
2022/09/19 01:22:47;;;;;;;15.37;3.00;;;;;;;8.20;100.00;101680.97;5048542;28;20028;-83
2022/09/19 01:25:46;;;;;;;13.77;2.90;;;;;;;8.23;100.00;101669.81;5049034;28;20047;-85
2022/09/19 01:28:20;;;;;;;14.50;3.23;;;;;;;8.31;100.00;101684.28;5049510;28;20242;-85
2022/09/19 01:31:18;;;;;;;13.45;3.20;;;;;;;8.34;100.00;101686.63;5048274;28;20041;-85
2022/09/19 01:34:06;;;;;;;15.27;3.13;;;;;;;8.40;100.00;101688.63;5049065;28;20043;-85
2022/09/19 01:36:52;;;;;;;16.33;3.30;;;;;;;8.46;100.00;101682.56;5048756;28;20472;-84
2022/09/19 01:39:24;;;;;;;17.73;3.47;;;;;;;8.54;100.00;101687.91;5048748;28;20091;-85
2022/09/19 01:41:51;;;;;;;17.23;3.20;;;;;;;8.55;100.00;101680.63;5048388;28;20040;-86
2022/09/19 01:44:18;;;;;;;14.43;2.80;;;;;;;8.44;100.00;101669.19;5049407;28;20805;-85
2022/09/19 01:46:59;;;;;;;13.90;3.00;;;;;;;8.45;100.00;101657.38;5048697;28;20052;-85
2022/09/19 01:49:39;;;;;;;13.73;2.90;;;;;;;8.55;100.00;101676.06;5048584;28;20577;-85
2022/09/19 01:52:21;;;;;;;18.23;3.30;;;;;;;8.61;100.00;101686.16;5049619;28;20033;-84
2022/09/19 01:54:58;;;;;;;15.07;3.30;;;;;;;8.60;100.00;101689.88;5048491;28;21417;-85
2022/09/19 01:57:35;;;;;;;15.73;3.10;;;;;;;8.69;100.00;101700.63;5048632;28;20520;-84
2022/09/19 02:00:13;;;;;;;12.87;3.00;;;;;;;8.70;100.00;101696.91;5048151;28;20052;-85
2022/09/19 02:02:57;;;;;;;17.70;3.10;;;;;;;8.67;100.00;101694.59;5027276;28;20028;-85
2022/09/19 02:05:53;;;;;;;16.52;3.15;;;;;;;8.70;100.00;101696.91;5049084;28;20028;-84
2022/09/19 02:08:31;;;;;;;18.00;3.90;;;;;;;8.65;100.00;101696.59;5043140;28;20044;-85
2022/09/19 02:11:26;;;;;;;18.90;3.00;;;;;;;8.64;100.00;101703.88;5047820;28;20049;-86
2022/09/19 02:13:58;;;;;;;15.00;2.85;;;;;;;8.55;100.00;101694.97;5030647;28;20068;-85
2022/09/19 02:16:30;;;;;;;12.33;2.87;;;;;;;8.52;100.00;101695.34;5047972;28;20187;-85
2022/09/19 02:19:25;;;;;;;13.73;3.10;;;;;;;8.60;100.00;101705.25;5047351;28;20499;-86
2022/09/19 02:21:58;;;;;;;14.43;3.10;;;;;;;8.55;100.00;101700.38;5041456;28;20487;-85
2022/09/19 02:24:30;;;;;;;16.07;3.00;;;;;;;8.56;100.00;101703.94;5047370;28;20035;-85
2022/09/19 02:27:08;;;;;;;14.40;3.10;;;;;;;8.51;100.00;101695.50;5047672;28;20052;-85
2022/09/19 02:29:38;;;;;;;16.87;3.50;;;;;;;8.51;100.00;101704.44;5027071;28;20032;-86
2022/09/19 02:32:04;;;;;;;14.70;3.03;;;;;;;8.46;100.00;101717.66;5034603;28;20365;-86
2022/09/19 02:34:30;;;;;;;16.20;2.93;;;;;;;8.46;100.00;101706.88;5036341;28;20037;-85
2022/09/19 02:37:04;;;;;;;15.37;3.30;;;;;;;8.48;100.00;101717.47;5048272;28;20380;-86
2022/09/19 02:39:44;;;;;;;15.18;3.25;;;;;;;8.44;100.00;101723.22;5048321;28;20039;-86
2022/09/19 02:42:12;;;;;;;15.60;2.73;;;;;;;8.40;100.00;101711.06;5047789;28;20044;-86
2022/09/19 02:45:17;;;;;;;12.57;3.10;;;;;;;8.42;100.00;101710.91;5030353;28;20064;-86
2022/09/19 02:48:12;;;;;;;17.65;3.08;;;;;;;8.41;100.00;101717.31;5047338;28;20045;-86
2022/09/19 02:50:47;;;;;;;15.38;3.13;;;;;;;8.28;100.00;101713.31;5037848;28;20041;-86
2022/09/19 02:53:18;;;;;;;14.90;3.87;;;;;;;8.33;100.00;101720.06;5047113;28;20041;-85
2022/09/19 02:55:49;;;;;;;13.80;2.80;;;;;;;8.30;100.00;101718.53;5048207;28;20048;-86
2022/09/19 02:58:16;;;;;;;14.60;3.57;;;;;;;8.32;100.00;101710.25;5047564;28;20044;-85
2022/09/19 03:00:51;;;;;;;14.57;3.20;;;;;;;8.25;100.00;101708.28;5046435;28;20074;-86
2022/09/19 03:06:11;;;;;;;17.53;3.10;;;;;;;8.25;100.00;101719.06;5049364;28;20174;-87
2022/09/19 03:08:37;;;;;;;13.60;3.23;;;;;;;8.27;100.00;101722.44;5046090;28;20033;-86
2022/09/19 03:11:09;;;;;;;13.87;2.93;;;;;;;8.21;100.00;101723.13;5047757;28;20041;-85
2022/09/19 03:13:38;;;;;;;16.93;2.80;;;;;;;8.25;100.00;101729.00;5028833;28;20037;-86
2022/09/19 03:16:11;;;;;;;14.47;3.17;;;;;;;8.22;100.00;101726.66;5026900;28;20396;-85
2022/09/19 03:18:38;;;;;;;16.13;3.10;;;;;;;8.18;100.00;101723.47;5047635;28;20123;-87
2022/09/19 03:21:08;;;;;;;15.37;2.90;;;;;;;8.19;100.00;101721.63;5047455;28;20468;-85
2022/09/19 03:23:58;;;;;;;16.03;3.03;;;;;;;8.13;100.00;101709.66;5046688;28;20078;-86
2022/09/19 03:26:35;;;;;;;17.50;3.17;;;;;;;8.30;100.00;101718.53;5029398;28;20380;-86
2022/09/19 03:29:03;;;;;;;18.10;3.40;;;;;;;8.28;100.00;101718.72;5029980;28;20044;-85
2022/09/19 03:31:29;;;;;;;16.53;2.90;;;;;;;8.31;100.00;101711.28;5047375;28;20029;-85
2022/09/19 03:33:58;;;;;;;17.50;2.70;;;;;;;8.30;100.00;101715.84;5047452;28;20118;-86
2022/09/19 03:36:25;;;;;;;16.27;2.80;;;;;;;8.41;100.00;101717.31;5051054;28;20040;-87
2022/09/19 03:38:50;;;;;;;19.00;3.00;;;;;;;8.42;100.00;101713.59;5050830;28;20685;-85
2022/09/19 03:41:18;;;;;;;14.00;2.80;;;;;;;8.41;100.00;101723.53;5050209;28;20057;-85
2022/09/19 03:43:44;;;;;;;11.33;2.60;;;;;;;8.43;100.00;101721.53;5050387;28;20571;-87
2022/09/19 03:46:15;;;;;;;13.93;2.93;;;;;;;8.44;100.00;101719.66;5051060;28;20036;-87
2022/09/19 03:48:44;;;;;;;14.87;3.20;;;;;;;8.47;100.00;101724.72;5049187;28;20090;-86
2022/09/19 03:51:10;;;;;;;15.00;2.63;;;;;;;8.41;100.00;101717.31;5051339;28;20062;-85
2022/09/19 03:53:36;;;;;;;14.90;3.00;;;;;;;8.50;100.00;101728.94;5050207;28;20120;-85
2022/09/19 03:56:02;;;;;;;17.27;3.20;;;;;;;8.45;100.00;101722.19;5051533;28;20787;-84
2022/09/19 03:58:30;;;;;;;12.03;3.00;;;;;;;8.52;100.00;101726.91;5050523;28;20045;-86
2022/09/19 04:00:56;;;;;;;16.47;3.20;;;;;;;8.61;100.00;101729.38;5050843;28;20040;-85
2022/09/19 04:03:23;;;;;;;19.63;3.57;;;;;;;8.67;100.00;101733.25;5050758;28;20070;-85
2022/09/19 04:05:52;;;;;;;15.43;3.53;;;;;;;8.69;100.00;101731.22;5050393;28;20024;-85
2022/09/19 04:08:19;;;;;;;17.87;3.17;;;;;;;8.76;100.00;101742.16;5050237;28;20040;-84
2022/09/19 04:10:44;;;;;;;13.33;2.87;;;;;;;8.75;100.00;101732.38;5050629;28;20159;-85
2022/09/19 04:13:10;;;;;;;12.77;3.27;;;;;;;8.78;100.00;101740.97;5050901;28;21072;-86
2022/09/19 04:15:36;;;;;;;12.97;2.97;;;;;;;8.80;100.00;101751.59;5049978;28;20060;-86
2022/09/19 04:18:03;;;;;;;15.53;3.17;;;;;;;8.82;100.00;101748.72;5050208;28;20047;-85
2022/09/19 04:20:30;;;;;;;14.47;2.60;;;;;;;8.75;100.00;101737.75;5050503;28;20439;-87
2022/09/19 04:23:00;;;;;;;15.63;3.17;;;;;;;8.73;100.00;101747.91;5049741;28;20040;-87
2022/09/19 04:25:34;;;;;;;14.10;3.17;;;;;;;8.76;100.00;101759.19;5050476;28;21415;-86
2022/09/19 04:28:02;;;;;;;20.38;3.28;;;;;;;8.80;100.00;101759.69;5049508;28;20029;-87
2022/09/19 04:30:27;;;;;;;18.67;2.80;;;;;;;8.77;100.00;101746.50;5049888;28;20643;-86
2022/09/19 04:32:53;;;;;;;17.10;3.00;;;;;;;8.81;100.00;101750.53;5049257;28;20025;-87
2022/09/19 04:35:19;;;;;;;13.03;2.87;;;;;;;8.90;100.00;101760.28;5049909;28;20044;-86
2022/09/19 04:37:44;;;;;;;13.03;2.67;;;;;;;8.91;100.00;101753.03;5048236;28;20129;-86
2022/09/19 04:40:10;;;;;;;17.23;2.87;;;;;;;8.93;100.00;101746.44;5050192;28;20071;-85
2022/09/19 04:42:35;;;;;;;15.40;2.87;;;;;;;8.98;100.00;101761.28;5049199;28;20045;-85
2022/09/19 04:45:01;;;;;;;12.33;2.70;;;;;;;8.99;100.00;101757.53;5050171;28;20071;-86
2022/09/19 04:47:28;;;;;;;15.90;3.43;;;;;;;9.05;100.00;101762.25;5049739;28;20040;-86
2022/09/19 04:49:56;;;;;;;10.23;2.40;;;;;;;8.97;100.00;101754.19;5029940;28;20029;-86
2022/09/19 04:52:25;;;;;;;13.70;2.70;;;;;;;8.95;100.00;101762.47;5050061;28;20519;-86
2022/09/19 04:54:51;;;;;;;16.33;2.87;;;;;;;8.93;100.00;101765.38;5049547;28;20418;-85
2022/09/19 04:57:16;;;;;;;16.57;3.00;;;;;;;8.79;100.00;101760.72;5050015;28;20123;-85
2022/09/19 04:59:42;;;;;;;12.33;2.60;;;;;;;8.79;100.00;101766.13;5049820;28;20048;-84
2022/09/19 05:02:08;;;;;;;14.47;3.17;;;;;;;8.79;100.00;101774.22;5050859;28;20164;-85
2022/09/19 05:04:35;;;;;;;16.13;3.13;;;;;;;8.72;100.00;101775.94;5049973;28;20780;-86
2022/09/19 05:07:02;;;;;;;13.03;3.07;;;;;;;8.71;100.00;101772.38;5048379;28;20139;-86
2022/09/19 05:09:27;;;;;;;12.43;2.63;;;;;;;8.67;100.00;101776.47;5050243;28;20358;-86
2022/09/19 05:11:55;;;;;;;12.57;2.70;;;;;;;8.65;100.00;101767.72;5048530;28;20079;-86
2022/09/19 05:14:21;;;;;;;15.07;2.57;;;;;;;8.72;100.00;101782.19;5049004;28;20029;-86
2022/09/19 05:16:50;;;;;;;12.47;3.27;;;;;;;8.69;100.00;101779.00;5048608;28;20053;-86
2022/09/19 05:19:16;;;;;;;17.70;3.13;;;;;;;8.77;100.00;101778.94;5048894;28;20041;-85
2022/09/19 05:21:43;;;;;;;13.20;2.83;;;;;;;8.81;100.00;101785.69;5048853;28;20044;-87
2022/09/19 05:24:09;;;;;;;15.07;2.93;;;;;;;8.82;100.00;101773.03;5029636;28;20535;-85
2022/09/19 05:26:34;;;;;;;17.43;2.90;;;;;;;8.94;100.00;101783.25;5028362;28;20045;-86
2022/09/19 05:29:00;;;;;;;14.70;3.17;;;;;;;8.93;100.00;101784.28;5048752;28;20119;-86
2022/09/19 05:31:25;;;;;;;16.60;3.10;;;;;;;8.90;100.00;101781.91;5040547;28;21277;-86
2022/09/19 05:33:53;;;;;;;13.37;2.80;;;;;;;8.93;100.00;101788.84;5049053;28;20070;-86
2022/09/19 05:36:20;;;;;;;13.23;2.80;;;;;;;8.92;100.00;101796.09;5048151;28;20457;-87
2022/09/19 05:38:46;;;;;;;14.10;2.90;;;;;;;8.97;100.00;101794.72;5049333;28;20040;-85
2022/09/19 05:41:11;;;;;;;14.63;2.90;;;;;;;8.94;100.00;101793.22;5046612;28;20388;-87
2022/09/19 05:43:36;;;;;;;13.23;3.00;;;;;;;8.97;100.00;101800.97;5049187;28;20032;-87
2022/09/19 05:46:02;;;;;;;14.10;2.60;;;;;;;8.89;100.00;101792.91;5048725;28;20046;-86
2022/09/19 05:48:29;;;;;;;11.90;3.00;;;;;;;8.85;100.00;101799.69;5048180;28;20040;-87
2022/09/19 05:50:55;;;;;;;16.63;3.20;;;;;;;8.83;100.00;101810.69;5048729;28;20043;-85
2022/09/19 05:56:05;;;;;;;14.77;2.70;;;;;;;8.82;100.00;101819.78;5048785;28;20122;-86
2022/09/19 05:58:31;;;;;;;13.60;2.77;;;;;;;8.82;100.00;101817.09;5047730;28;20531;-87
2022/09/19 06:00:57;;;;;;;12.10;2.97;;;;;;;8.85;100.00;101822.13;5050965;28;20025;-86
2022/09/19 06:03:23;;;;;;;14.07;2.90;;;;;;;8.92;100.00;101823.13;5048199;28;20029;-86
2022/09/19 06:05:54;;;;;;;14.37;3.20;;;;;;;8.95;100.00;101822.78;5049393;28;20866;-84
2022/09/19 06:08:21;;;;;;;12.50;2.80;;;;;;;8.99;100.00;101817.00;5047922;28;20032;-83
2022/09/19 06:10:47;;;;;;;11.03;3.33;;;;;;;9.06;100.00;101823.41;5047660;28;20128;-85
2022/09/19 06:13:14;;;;;;;13.57;3.00;;;;;;;9.10;100.00;101819.31;5048161;28;20090;-85
2022/09/19 06:15:40;;;;;;;14.03;3.20;;;;;;;9.13;100.00;101819.78;5049025;28;20098;-84
2022/09/19 06:18:09;;;;;;;12.40;3.03;;;;;;;9.24;100.00;101820.41;5047706;28;20041;-85
2022/09/19 06:20:34;;;;;;;14.27;2.70;;;;;;;9.34;100.00;101829.13;5054879;28;20025;-85
2022/09/19 06:23:02;;;;;;;12.70;2.60;;;;;;;9.46;100.00;101827.72;5061580;28;20879;-85
2022/09/19 06:25:32;;;;;;;16.47;3.43;;;;;;;9.62;100.00;101834.00;5029923;28;20109;-86
2022/09/19 06:28:00;;;;;;;15.90;3.20;;;;;;;9.76;100.00;101840.50;5051924;28;20472;-87
2022/09/19 06:30:27;;;;;;;14.77;2.77;;;;;;;9.90;100.00;101837.00;5072734;28;20021;-85
2022/09/19 06:32:53;;;;;;;12.50;2.83;;;;;;;9.96;100.00;101833.53;5070267;28;20103;-86
2022/09/19 06:35:20;;;;;;;12.77;2.70;;;;;;;10.01;100.00;101838.41;5062774;28;20472;-86
2022/09/19 06:37:47;;;;;;;16.53;3.13;;;;;;;10.06;99.45;101845.97;5072030;28;20073;-86
2022/09/19 06:40:13;;;;;;;16.63;2.90;;;;;;;10.10;99.27;101850.00;5073569;28;20092;-86
2022/09/19 06:42:39;;;;;;;12.87;2.57;;;;;;;10.12;98.95;101847.97;5054871;28;20035;-86
2022/09/19 06:45:07;;;;;;;13.13;2.63;;;;;;;10.15;98.25;101850.28;5069480;28;20469;-86
2022/09/19 06:47:35;;;;;;;12.47;2.77;;;;;;;10.14;98.76;101849.47;5073000;28;20031;-87
2022/09/19 06:50:00;;;;;;;15.97;2.77;;;;;;;10.21;97.83;101856.84;5047172;28;21369;-87
2022/09/19 06:52:26;;;;;;;11.57;2.60;;;;;;;10.29;97.92;101859.47;5047025;28;20060;-87
2022/09/19 06:54:52;;;;;;;11.43;2.60;;;;;;;10.30;97.80;101861.97;5047518;28;20467;-88
2022/09/19 06:57:17;;;;;;;13.03;3.07;;;;;;;10.30;98.46;101855.72;5047190;28;20036;-87
2022/09/19 06:59:43;;;;;;;9.70;2.53;;;;;;;10.41;97.36;101865.31;5035378;28;20024;-87
2022/09/19 07:02:09;;;;;;;8.43;2.30;;;;;;;10.43;97.93;101876.78;5047085;28;20159;-88
2022/09/19 07:04:34;;;;;;;10.73;2.47;;;;;;;10.46;97.44;101885.38;5047665;28;20035;-87
2022/09/19 07:07:00;;;;;;;10.20;2.50;;;;;;;10.51;97.82;101879.41;5047474;28;20033;-86
2022/09/19 07:09:26;;;;;;;11.17;2.40;;;;;;;10.57;98.14;101881.38;5057730;28;20036;-86
2022/09/19 07:11:53;;;;;;;13.50;2.77;;;;;;;10.63;98.28;101891.50;5057467;28;20024;-87
2022/09/19 07:14:18;;;;;;;8.40;2.50;;;;;;;10.71;98.46;101884.28;5068087;28;20470;-86
2022/09/19 07:16:44;;;;;;;16.13;3.03;;;;;;;10.75;98.64;101888.31;5060739;28;20076;-86
2022/09/19 07:19:09;;;;;;;14.37;4.00;;;;;;;10.70;98.92;101872.56;5070103;28;20499;-86
2022/09/19 07:21:34;;;;;;;11.07;2.40;;;;;;;10.83;98.30;101887.38;5074649;28;20051;-87
2022/09/19 07:24:01;;;;;;;13.73;2.63;;;;;;;10.93;98.82;101891.47;5057034;28;20033;-86
2022/09/19 07:26:27;;;;;;;13.47;2.60;;;;;;;11.02;98.72;101894.09;5069598;28;20044;-87
2022/09/19 07:28:52;;;;;;;11.43;2.67;;;;;;;11.10;98.57;101896.69;5051456;28;20028;-88
2022/09/19 07:31:18;;;;;;;12.80;2.27;;;;;;;11.08;98.03;101888.75;5030966;28;20033;-87
2022/09/19 07:33:43;;;;;;;13.83;2.70;;;;;;;11.23;98.55;101906.84;5048568;28;20676;-88
2022/09/19 07:36:10;;;;;;;12.57;2.63;;;;;;;11.26;98.23;101907.31;5052120;28;20036;-87
2022/09/19 07:38:35;;;;;;;14.93;3.17;;;;;;;11.32;97.79;101909.25;5050985;28;20049;-88
2022/09/19 07:41:01;;;;;;;12.07;2.40;;;;;;;11.37;98.01;101907.84;5050803;28;20085;-88
2022/09/19 07:43:26;;;;;;;14.23;2.77;;;;;;;11.40;98.27;101902.88;5051242;28;20061;-87
2022/09/19 07:45:52;;;;;;;11.43;2.50;;;;;;;11.44;97.98;101908.78;5050266;28;20045;-88
2022/09/19 07:48:18;;;;;;;12.40;2.40;;;;;;;11.49;98.34;101911.72;5050432;28;20044;-88
2022/09/19 07:50:44;;;;;;;12.33;2.80;;;;;;;11.52;97.69;101908.66;5050391;28;20025;-87
2022/09/19 07:53:12;;;;;;;16.10;2.73;;;;;;;11.58;98.39;101897.00;5050768;28;20058;-88
2022/09/19 07:55:38;;;;;;;10.27;2.47;;;;;;;11.72;97.90;101917.03;5050325;28;20040;-88
2022/09/19 07:58:05;;;;;;;12.77;2.50;;;;;;;11.74;95.98;101914.94;5051030;28;20040;-87
2022/09/19 08:00:32;;;;;;;11.50;2.53;;;;;;;11.83;96.81;101919.22;5050601;28;20033;-88
2022/09/19 08:03:07;;;;;;;15.00;2.90;;;;;;;11.88;96.68;101913.19;5050247;28;20048;-88
2022/09/19 08:05:37;;;;;;;10.03;2.50;;;;;;;12.01;96.64;101926.09;5049414;28;20037;-88
2022/09/19 08:08:04;;;;;;;13.20;2.40;;;;;;;12.06;96.43;101923.63;5055068;28;20025;-87
2022/09/19 08:10:30;;;;;;;14.40;2.70;;;;;;;12.11;96.60;101932.03;5055108;28;20398;-87
2022/09/19 08:13:02;;;;;;;12.80;2.43;;;;;;;12.16;97.47;101926.84;5056512;28;20028;-87
2022/09/19 08:15:29;;;;;;;12.77;2.50;;;;;;;12.27;95.57;101939.06;5060351;28;20040;-87
2022/09/19 08:17:55;;;;;;;10.53;2.87;;;;;;;12.41;96.77;101936.44;5060578;28;20035;-87
2022/09/19 08:20:21;;;;;;;12.50;2.50;;;;;;;12.48;98.38;101946.34;5068990;28;20553;-87
2022/09/19 08:22:46;;;;;;;12.57;2.37;;;;;;;12.59;96.43;101950.41;5074828;28;20226;-88
2022/09/19 08:25:11;;;;;;;10.43;2.67;;;;;;;12.60;95.08;101949.34;5043288;28;20269;-88
2022/09/19 08:27:37;;;;;;;15.87;2.73;;;;;;;12.64;96.31;101941.63;5029550;28;20045;-88
2022/09/19 08:30:04;;;;;;;13.03;2.60;;;;;;;12.73;96.33;101947.75;5050505;28;20138;-87
2022/09/19 08:32:30;;;;;;;15.17;2.60;;;;;;;12.75;92.07;101956.56;5034200;28;20042;-88
2022/09/19 08:34:55;;;;;;;11.60;2.40;;;;;;;12.83;91.65;101949.06;5049567;28;20040;-87
2022/09/19 08:37:21;;;;;;;12.70;2.30;;;;;;;12.94;90.68;101947.66;5050635;28;20507;-88
2022/09/19 08:42:57;;;;;;;11.13;2.57;;;;;;;13.14;93.49;101949.69;5049318;28;20051;-88
2022/09/19 08:45:36;;;;;;;12.83;2.60;;;;;;;13.24;92.27;101962.91;5016522;28;20040;-88
2022/09/19 08:48:08;;;;;;;10.63;2.30;;;;;;;13.31;91.18;101967.34;5048061;28;20064;-88
2022/09/19 08:50:38;;;;;;;10.10;2.40;;;;;;;13.58;91.08;101953.84;5049643;28;20383;-89
2022/09/19 08:53:06;;;;;;;12.70;2.47;;;;;;;13.90;89.59;101965.03;5050180;28;20036;-88
2022/09/19 08:55:35;;;;;;;10.60;2.40;;;;;;;14.31;90.97;101958.56;5049748;28;20052;-88
2022/09/19 08:58:04;;;;;;;11.27;2.30;;;;;;;14.41;85.96;101960.03;5049544;28;20068;-88
2022/09/19 09:00:40;;;;;;;10.27;2.50;;;;;;;14.53;84.82;101958.34;5049996;28;20036;-88
2022/09/19 09:03:09;;;;;;;16.30;2.70;;;;;;;14.47;86.35;101960.03;5029095;28;20432;-88
2022/09/19 09:06:05;;;;;;;9.87;2.20;;;;;;;14.80;85.54;101966.56;5051554;28;20112;-89
2022/09/19 09:09:01;;;;;;;13.30;2.47;;;;;;;15.15;83.92;101969.81;5069565;28;20095;-87
2022/09/19 09:11:38;;;;;;;11.47;2.30;;;;;;;15.57;84.43;101953.06;5061681;28;20020;-88
2022/09/19 09:14:15;;;;;;;11.97;2.60;;;;;;;15.75;82.75;101967.84;5069626;28;20470;-89
2022/09/19 09:16:56;;;;;;;9.60;2.13;;;;;;;15.79;76.32;101963.63;5063707;28;20032;-87
2022/09/19 09:19:49;;;;;;;11.18;2.90;;;;;;;15.87;76.75;101963.44;5066073;28;20129;-87
2022/09/19 09:22:26;;;;;;;10.70;2.13;;;;;;;16.05;75.12;101962.66;5067076;28;20048;-90
2022/09/19 09:25:11;;;;;;;10.88;2.00;;;;;;;16.20;74.19;101954.16;5057782;28;20037;-87
2022/09/19 09:27:57;;;;;;;10.60;2.27;;;;;;;16.33;76.12;101954.03;5053713;28;20082;-87
2022/09/19 09:30:23;;;;;;;10.60;1.88;;;;;;;16.43;73.90;101949.94;5053897;28;20051;-86
2022/09/19 09:32:54;;;;;;;13.48;2.60;;;;;;;16.59;72.37;101951.28;5052302;28;20442;-86
2022/09/19 09:35:47;;;;;;;8.75;2.25;;;;;;;16.85;73.23;101956.47;5064196;28;20095;-87
2022/09/19 09:38:32;;;;;;;11.75;2.58;;;;;;;16.99;71.64;101940.78;5061024;28;20028;-87
2022/09/19 09:43:58;;;;;;;12.38;2.47;;;;;;;16.97;70.07;101948.41;5053472;28;20370;-85
2022/09/19 09:46:36;;;;;;;11.63;2.20;;;;;;;17.06;68.89;101953.56;5054414;28;20056;-85
2022/09/19 09:49:01;;;;;;;6.70;1.98;;;;;;;16.88;69.04;101960.66;5074293;28;20051;-85
2022/09/19 09:51:30;;;;;;;10.00;1.95;;;;;;;16.91;68.91;101960.25;5043218;28;20024;-86
2022/09/19 09:57:44;;;;;;;9.25;2.05;;;;;;;17.02;68.31;101948.53;5062588;28;20145;-85
2022/09/19 10:03:40;;;;;;;9.25;2.00;;;;;;;15.86;73.43;101978.97;5006826;28;20457;-88
2022/09/19 10:06:12;;;;;;;8.70;2.27;;;;;;;15.50;77.94;101979.53;5058371;28;20104;-87
2022/09/19 10:09:02;;;;;;;7.43;1.53;;;;;;;15.29;82.18;101976.06;5053219;28;20029;-89
2022/09/19 10:11:56;;;;;;;7.80;1.97;;;;;;;15.28;79.61;101973.56;5057485;28;20029;-86
2022/09/19 10:14:25;;;;;;;8.13;2.13;;;;;;;14.90;81.60;101977.03;5061286;28;20035;-87
2022/09/19 10:16:56;;;;;;;7.03;1.83;;;;;;;14.82;80.19;101972.63;5066531;28;20075;-86
2022/09/19 10:19:40;;;;;;;9.73;1.93;;;;;;;14.92;81.82;101967.56;5065243;28;20024;-86
2022/09/19 10:22:14;;;;;;;;;;;;;;;15.14;83.75;101986.41;5063661;28;20068;-90
2022/09/19 10:24:56;;;;;;;10.43;2.07;;;;;;;14.79;83.04;101989.41;5057520;28;19966;-87
2022/09/19 10:27:31;;;;;;;7.80;1.80;;;;;;;14.34;86.39;101984.59;5062029;28;20183;-88
2022/09/19 10:30:22;;;;;;;8.33;1.70;;;;;;;14.18;85.18;101975.78;5045583;28;20142;-88
2022/09/19 10:32:48;;;;;;;10.23;1.80;;;;;;;14.02;82.67;101984.34;5047655;28;20092;-87
2022/09/19 10:35:26;;;;;;;7.80;1.60;;;;;;;13.83;83.00;101977.78;5045013;28;20051;-89
2022/09/19 10:38:12;;;;;;;8.53;1.80;;;;;;;13.85;83.33;101976.53;5047517;28;20489;-87
2022/09/19 10:41:02;;;;;;;7.40;1.50;;;;;;;13.79;83.19;101976.53;5045544;28;20476;-86
2022/09/19 10:43:34;;;;;;;11.40;2.13;;;;;;;13.92;83.35;101982.00;5046675;28;20349;-89
2022/09/19 10:46:06;;;;;;;13.43;2.30;;;;;;;14.22;82.21;101967.19;5046432;28;20044;-88
2022/09/19 10:48:34;;;;;;;11.40;2.13;;;;;;;14.26;81.49;101946.63;5047016;28;20037;-87
2022/09/19 10:51:06;;;;;;;11.63;1.77;;;;;;;14.55;80.82;101969.91;5046011;28;20036;-88
2022/09/19 10:53:33;;;;;;;9.67;1.70;;;;;;;14.60;79.53;101972.81;5046445;28;20028;-87
2022/09/19 10:56:07;;;;;;;9.70;2.00;;;;;;;14.84;82.07;101967.81;5046716;28;20040;-89
2022/09/19 10:58:37;;;;;;;;;;;;;;;15.20;78.86;101977.34;5047184;28;20380;-87
2022/09/19 11:01:04;;;;;;;8.60;1.83;;;;;;;15.31;76.92;101964.91;5046249;28;19935;-88
2022/09/19 11:03:32;;;;;;;8.60;1.60;;;;;;;15.61;75.22;101973.41;5047896;28;20040;-88
2022/09/19 11:06:15;;;;;;;11.40;2.20;;;;;;;15.77;78.34;101982.97;5045678;28;20037;-88
2022/09/19 11:08:44;;;;;;;6.60;1.60;;;;;;;15.62;74.08;101983.25;5046646;28;20036;-88
2022/09/19 11:11:25;;;;;;;8.33;1.53;;;;;;;15.44;74.13;101978.53;5046193;28;20090;-90
2022/09/19 11:14:19;;;;;;;6.90;1.57;;;;;;;15.34;70.93;101987.19;5046414;28;20094;-87
2022/09/19 11:17:00;;;;;;;8.17;1.60;;;;;;;14.97;69.05;101967.78;5032305;28;20712;-88
2022/09/19 11:19:36;;;;;;;6.63;1.43;;;;;;;14.87;71.73;101972.81;5046385;28;20101;-89
2022/09/19 11:22:27;;;;;;;6.70;1.50;;;;;;;14.96;73.92;101976.16;5045590;28;20032;-88
2022/09/19 11:25:25;;;;;;;7.10;1.50;;;;;;;14.87;72.98;101972.00;5031703;28;20067;-89
2022/09/19 11:28:21;;;;;;;8.20;2.00;;;;;;;14.88;74.55;101979.97;5045873;28;20044;-88
2022/09/19 11:31:06;;;;;;;10.90;1.90;;;;;;;14.88;74.26;101982.69;5046126;28;20124;-89
2022/09/19 11:33:40;;;;;;;8.88;1.65;;;;;;;14.90;76.36;101979.75;5046538;28;20046;-87
2022/09/19 11:36:17;;;;;;;;;;;;;;;15.05;78.56;101979.50;5046548;28;20381;-87
2022/09/19 11:39:03;;;;;;;7.80;1.70;;;;;;;14.96;76.14;101967.97;5046507;28;19920;-87
2022/09/19 11:41:43;;;;;;;8.97;1.80;;;;;;;15.12;74.21;101975.72;5044861;28;20111;-87
2022/09/19 11:44:36;;;;;;;7.70;1.70;;;;;;;15.25;76.32;101977.53;5046381;28;20115;-87
2022/09/19 11:47:30;;;;;;;8.57;1.77;;;;;;;15.41;81.03;101970.78;5045640;28;20127;-87
2022/09/19 11:50:08;;;;;;;10.80;1.98;;;;;;;15.65;75.72;101969.19;5046612;28;20489;-87
2022/09/19 11:52:41;;;;;;;7.53;1.97;;;;;;;15.85;75.02;101966.34;5045328;28;20656;-90
2022/09/19 11:55:32;;;;;;;10.90;1.80;;;;;;;15.99;74.23;101969.84;5047813;28;20419;-89
2022/09/19 11:58:12;;;;;;;9.27;1.60;;;;;;;16.10;71.87;101964.72;5052781;28;20036;-86
2022/09/19 12:00:53;;;;;;;6.63;1.53;;;;;;;15.98;69.88;101973.66;5067494;28;20475;-87
2022/09/19 12:03:24;;;;;;;7.33;1.60;;;;;;;15.61;74.00;101967.09;5068844;28;20051;-87